Time;durP1;ratioP1;P1;durP2;ratioP2;P2;SDS_P1;SDS_P2;PMS_P1;PMS_P2;Temp;Humidity;BMP_temperature;BMP_pressure;BME280_temperature;BME280_humidity;BME280_pressure;Samples;Min_cycle;Max_cycle;Signal;HPM_P1;HPM_P2
2022/12/27 00:00:49;;;;;;;1.77;1.00;;;7.20;1.00;;;;;;5048663;28;20447;-69
2022/12/27 00:03:14;;;;;;;2.90;1.30;;;7.20;1.00;;;;;;5050510;28;20412;-71
2022/12/27 00:05:44;;;;;;;3.13;1.20;;;7.20;1.00;;;;;;5052540;28;20482;-70
2022/12/27 00:08:10;;;;;;;3.47;1.10;;;7.10;1.00;;;;;;5044736;28;20185;-71
2022/12/27 00:10:36;;;;;;;3.00;1.10;;;7.00;1.00;;;;;;5051280;28;20459;-71
2022/12/27 00:13:02;;;;;;;2.57;1.20;;;6.90;1.00;;;;;;5049316;28;20173;-71
2022/12/27 00:15:28;;;;;;;4.17;3.00;;;6.80;1.00;;;;;;5050563;28;20426;-71
2022/12/27 00:17:53;;;;;;;1.67;1.37;;;6.70;1.00;;;;;;5049655;28;20201;-71
2022/12/27 00:20:19;;;;;;;3.67;1.57;;;6.70;1.00;;;;;;5046081;28;20203;-71
2022/12/27 00:22:44;;;;;;;2.17;1.20;;;6.60;1.00;;;;;;5039477;28;20186;-71
2022/12/27 00:25:10;;;;;;;3.83;1.33;;;6.60;1.00;;;;;;5049647;28;20189;-71
2022/12/27 00:27:36;;;;;;;1.63;1.23;;;6.60;1.00;;;;;;5048649;28;20197;-70
2022/12/27 00:30:02;;;;;;;2.97;2.00;;;6.50;1.00;;;;;;5050373;28;20205;-70
2022/12/27 00:32:28;;;;;;;3.17;2.03;;;6.50;1.00;;;;;;5041605;28;20322;-71
2022/12/27 00:34:53;;;;;;;2.17;1.40;;;6.40;1.00;;;;;;5047510;28;20997;-70
2022/12/27 00:37:19;;;;;;;1.90;1.30;;;6.40;1.00;;;;;;5049822;28;20173;-71
2022/12/27 00:39:44;;;;;;;2.03;1.30;;;6.30;1.00;;;;;;5047293;28;20173;-71
2022/12/27 00:42:10;;;;;;;2.60;1.30;;;6.30;1.00;;;;;;5047973;28;20165;-71
2022/12/27 00:44:35;;;;;;;1.90;1.03;;;6.30;1.00;;;;;;5048050;28;20782;-70
2022/12/27 00:47:01;;;;;;;4.40;1.23;;;6.20;1.00;;;;;;5049386;28;20173;-70
2022/12/27 00:49:26;;;;;;;2.27;1.20;;;6.20;1.00;;;;;;5046764;28;20189;-71
2022/12/27 00:51:52;;;;;;;1.87;1.07;;;6.10;1.00;;;;;;5040931;28;20196;-71
2022/12/27 00:54:17;;;;;;;2.07;1.10;;;6.10;1.00;;;;;;5061583;28;20180;-68
2022/12/27 00:56:43;;;;;;;2.83;1.20;;;6.10;1.00;;;;;;5049008;28;20177;-68
2022/12/27 00:59:10;;;;;;;2.87;1.40;;;6.10;1.00;;;;;;5051366;28;20188;-71
2022/12/27 01:01:37;;;;;;;1.47;1.20;;;6.10;1.00;;;;;;5043366;28;20576;-71
2022/12/27 01:04:03;;;;;;;2.13;1.37;;;6.00;1.00;;;;;;5045041;28;20420;-71
2022/12/27 01:06:31;;;;;;;3.20;1.33;;;6.00;1.00;;;;;;5040366;28;20439;-72
2022/12/27 01:08:58;;;;;;;3.00;1.43;;;6.00;1.00;;;;;;5052043;28;20410;-71
2022/12/27 01:11:25;;;;;;;2.83;1.37;;;5.90;1.00;;;;;;5045969;28;20451;-69
2022/12/27 01:13:52;;;;;;;2.13;1.27;;;5.90;1.00;;;;;;5036516;28;20418;-70
2022/12/27 01:16:21;;;;;;;2.40;1.40;;;5.90;1.00;;;;;;5042703;28;20427;-70
2022/12/27 01:18:47;;;;;;;1.50;1.20;;;5.90;1.00;;;;;;5057071;28;20411;-71
2022/12/27 01:21:15;;;;;;;2.87;1.30;;;5.90;1.00;;;;;;5044641;28;20554;-71
2022/12/27 01:23:41;;;;;;;2.00;1.40;;;5.90;1.00;;;;;;5048963;28;20256;-71
2022/12/27 01:26:13;;;;;;;3.70;2.10;;;5.90;1.00;;;;;;5046271;28;20481;-70
2022/12/27 01:28:39;;;;;;;6.60;2.10;;;5.80;1.00;;;;;;5048213;28;20948;-71
2022/12/27 01:31:06;;;;;;;4.17;2.90;;;5.80;1.00;;;;;;5045028;28;20471;-71
2022/12/27 01:33:32;;;;;;;14.40;5.20;;;5.70;1.00;;;;;;5047178;28;20188;-71
2022/12/27 01:36:05;;;;;;;7.50;3.47;;;5.70;1.00;;;;;;5048929;28;20510;-71
2022/12/27 01:38:31;;;;;;;3.80;2.33;;;5.70;1.00;;;;;;5046743;28;20209;-70
2022/12/27 01:40:56;;;;;;;6.70;1.63;;;5.60;1.00;;;;;;5048370;28;20814;-71
2022/12/27 01:43:36;;;;;;;2.03;1.50;;;5.50;1.00;;;;;;5042266;28;20170;-70
2022/12/27 01:46:02;;;;;;;4.70;1.87;;;5.40;1.00;;;;;;5040986;28;20180;-71
2022/12/27 01:48:27;;;;;;;4.13;1.60;;;5.40;1.00;;;;;;5048825;28;20416;-71
2022/12/27 01:51:01;;;;;;;3.20;1.43;;;5.40;1.00;;;;;;5033063;28;20210;-69
2022/12/27 01:53:31;;;;;;;2.00;1.30;;;5.40;1.00;;;;;;5053990;28;20255;-70
2022/12/27 01:56:03;;;;;;;3.53;1.27;;;5.40;1.00;;;;;;5044489;28;20481;-71
2022/12/27 01:58:34;;;;;;;3.53;1.30;;;5.40;1.00;;;;;;5049086;28;20442;-68
2022/12/27 02:01:01;;;;;;;2.80;1.30;;;5.40;1.00;;;;;;5038820;28;20488;-71
2022/12/27 02:03:38;;;;;;;1.87;1.40;;;5.40;1.00;;;;;;5047226;28;20420;-71
2022/12/27 02:06:07;;;;;;;2.00;1.10;;;5.30;1.00;;;;;;5043813;28;20418;-70
2022/12/27 02:09:11;;;;;;;8.83;4.37;;;5.30;1.00;;;;;;5045704;28;20419;-71
2022/12/27 02:11:54;;;;;;;7.00;2.90;;;5.30;1.00;;;;;;5025855;28;20993;-71
2022/12/27 02:14:21;;;;;;;14.23;4.30;;;5.30;1.00;;;;;;5048990;28;20392;-71
2022/12/27 02:16:47;;;;;;;4.80;2.20;;;5.30;1.00;;;;;;5048656;28;20509;-72
2022/12/27 02:19:31;;;;;;;4.60;1.77;;;5.40;1.00;;;;;;5044611;28;20431;-71
2022/12/27 02:24:01;;;;;;;3.30;1.43;;;5.30;1.00;;;;;;5051387;28;20635;-70
2022/12/27 02:25:35;;;;;;;3.00;1.30;;;5.30;1.00;;;;;;5043125;28;20829;-70
2022/12/27 02:28:19;;;;;;;2.30;1.80;;;5.20;1.00;;;;;;5045415;28;20435;-68
2022/12/27 02:30:48;;;;;;;2.03;1.50;;;5.10;1.00;;;;;;5043819;28;20471;-71
2022/12/27 02:33:20;;;;;;;4.03;1.50;;;5.20;1.00;;;;;;5046353;28;20415;-70
2022/12/27 02:35:52;;;;;;;4.50;2.00;;;5.20;1.00;;;;;;5035504;28;20529;-71
2022/12/27 02:38:20;;;;;;;4.90;1.33;;;5.20;1.00;;;;;;5048526;28;20474;-71
2022/12/27 02:55:22;;;;;;;7.70;1.63;;;5.00;1.00;;;;;;5038705;28;20526;-71
2022/12/27 02:58:12;;;;;;;8.00;1.53;;;5.00;1.00;;;;;;5047293;28;20917;-71
2022/12/27 03:03:59;;;;;;;3.33;1.50;;;4.90;1.00;;;;;;5046699;28;20411;-70
2022/12/27 03:06:51;;;;;;;2.67;1.40;;;4.90;1.00;;;;;;5042879;28;20420;-70
2022/12/27 03:17:54;;;;;;;2.00;1.60;;;4.40;1.00;;;;;;5049032;28;20419;-71
2022/12/27 03:25:54;;;;;;;3.37;1.87;;;4.10;1.00;;;;;;5048678;28;20418;-71
2022/12/27 03:39:45;;;;;;;2.67;1.60;;;3.80;3.90;;;;;;5040233;28;20474;-71
2022/12/27 03:45:00;;;;;;;6.27;1.53;;;4.10;6.10;;;;;;5033054;28;20903;-71
2022/12/27 03:47:32;;;;;;;1.67;1.30;;;3.90;5.80;;;;;;5043617;28;20502;-72
2022/12/27 03:50:34;;;;;;;4.23;1.50;;;3.70;7.80;;;;;;5046532;28;20212;-71
2022/12/27 03:53:13;;;;;;;6.97;1.90;;;3.70;9.50;;;;;;5054238;28;20497;-71
2022/12/27 03:55:39;;;;;;;3.60;1.77;;;3.80;10.20;;;;;;5045753;28;20941;-70
2022/12/27 03:58:04;;;;;;;8.00;1.93;;;3.80;8.50;;;;;;5039910;28;20566;-70
2022/12/27 04:00:30;;;;;;;3.43;1.77;;;3.80;9.80;;;;;;5048135;28;20822;-70
2022/12/27 04:02:56;;;;;;;5.33;1.73;;;3.90;10.90;;;;;;5045372;28;20650;-72
2022/12/27 04:05:21;;;;;;;6.87;1.90;;;3.90;9.40;;;;;;5046484;28;20173;-71
2022/12/27 04:35:07;;;;;;;8.13;2.60;;;3.80;14.80;;;;;;5039477;28;20431;-71
2022/12/27 04:37:33;;;;;;;9.87;1.80;;;3.80;15.00;;;;;;5049661;28;20407;-71
2022/12/27 04:56:26;;;;;;;2.30;2.10;;;3.80;23.70;;;;;;5043526;28;20442;-71
2022/12/27 05:04:20;;;;;;;11.00;3.00;;;3.90;30.30;;;;;;5050806;28;20786;-71
2022/12/27 05:06:45;;;;;;;2.57;1.90;;;3.90;31.80;;;;;;5050181;28;20440;-71
2022/12/27 05:14:44;;;;;;;11.37;2.50;;;3.90;33.90;;;;;;5039585;28;20411;-70
2022/12/27 05:17:09;;;;;;;12.23;1.97;;;4.30;34.40;;;;;;5045128;28;20427;-72
2022/12/27 05:19:35;;;;;;;6.00;1.90;;;3.90;31.90;;;;;;5049351;28;20213;-71
2022/12/27 05:27:28;;;;;;;4.70;2.20;;;4.00;34.00;;;;;;5050413;28;20438;-69
2022/12/27 05:29:54;;;;;;;6.10;2.73;;;4.00;34.00;;;;;;5049468;28;21194;-70
2022/12/27 05:32:19;;;;;;;9.73;2.63;;;4.10;34.20;;;;;;5035161;28;20177;-68
2022/12/27 05:34:45;;;;;;;5.90;2.33;;;4.00;34.00;;;;;;5038630;28;20287;-70
2022/12/27 05:37:10;;;;;;;5.47;2.50;;;4.10;34.10;;;;;;5046761;28;20181;-69
2022/12/27 05:39:36;;;;;;;4.67;2.40;;;4.10;32.00;;;;;;5045327;28;20178;-68
2022/12/27 05:42:02;;;;;;;4.87;2.20;;;4.10;34.20;;;;;;5046906;28;20631;-69
2022/12/27 05:44:27;;;;;;;6.13;2.50;;;4.10;34.20;;;;;;5046051;28;20173;-69
2022/12/27 05:46:54;;;;;;;4.77;2.40;;;4.10;34.30;;;;;;5049006;28;20196;-69
2022/12/27 05:49:19;;;;;;;4.10;3.07;;;4.10;34.10;;;;;;5043522;28;20281;-70
2022/12/27 05:51:45;;;;;;;5.23;2.60;;;4.00;31.90;;;;;;5045488;28;21152;-70
2022/12/27 05:54:10;;;;;;;8.70;3.00;;;4.00;34.10;;;;;;5056580;28;20177;-70
2022/12/27 05:56:36;;;;;;;6.10;2.30;;;4.00;34.20;;;;;;5044991;28;20289;-70
2022/12/27 05:59:02;;;;;;;12.47;2.40;;;4.00;33.90;;;;;;5042624;28;20219;-69
2022/12/27 06:01:27;;;;;;;7.67;3.53;;;4.00;34.00;;;;;;5040371;28;20205;-69
2022/12/27 06:03:53;;;;;;;3.50;2.10;;;4.00;34.00;;;;;;5049376;28;20411;-69
2022/12/27 06:06:19;;;;;;;9.70;2.80;;;4.00;34.00;;;;;;5048293;28;20169;-69
2022/12/27 06:08:44;;;;;;;5.57;2.60;;;4.00;34.00;;;;;;5049602;28;20612;-70
2022/12/27 06:11:15;;;;;;;7.60;2.77;;;4.00;33.90;;;;;;5047227;28;20746;-68
2022/12/27 06:13:42;;;;;;;4.50;2.50;;;3.90;34.00;;;;;;5042008;28;20246;-69
2022/12/27 06:16:11;;;;;;;7.00;4.30;;;3.90;34.10;;;;;;5046536;28;20439;-69
2022/12/27 06:18:38;;;;;;;5.47;2.80;;;4.00;34.00;;;;;;5048318;28;20509;-68
2022/12/27 06:21:06;;;;;;;4.57;2.70;;;3.90;31.90;;;;;;5047648;28;20431;-69
2022/12/27 06:23:33;;;;;;;6.43;3.20;;;4.00;34.10;;;;;;5051958;28;20436;-69
2022/12/27 06:26:06;;;;;;;7.57;3.50;;;4.00;34.00;;;;;;5047486;28;20424;-69
2022/12/27 06:28:32;;;;;;;13.57;3.30;;;2.20;32.70;;;;;;5039904;28;20463;-69
2022/12/27 06:30:59;;;;;;;8.83;3.40;;;4.00;32.00;;;;;;5032419;28;20463;-69
2022/12/27 06:33:25;;;;;;;5.30;2.93;;;4.20;34.40;;;;;;5047795;28;20423;-69
2022/12/27 06:35:51;;;;;;;8.97;3.10;;;4.00;34.00;;;;;;5041770;28;20428;-68
2022/12/27 06:38:16;;;;;;;6.43;3.10;;;4.00;34.10;;;;;;5043353;28;20170;-70
2022/12/27 06:40:42;;;;;;;8.33;3.20;;;4.00;31.90;;;;;;5037468;28;20213;-69
2022/12/27 06:43:07;;;;;;;6.07;2.70;;;4.00;34.20;;;;;;5048058;28;20227;-69
2022/12/27 06:45:32;;;;;;;7.87;2.50;;;4.00;34.00;;;;;;5044219;28;20191;-70
2022/12/27 06:47:58;;;;;;;7.47;2.80;;;4.00;34.00;;;;;;5047507;28;20306;-70
2022/12/27 06:50:23;;;;;;;3.83;2.73;;;3.90;31.90;;;;;;5035368;28;20209;-70
2022/12/27 06:52:49;;;;;;;4.80;2.60;;;4.00;34.20;;;;;;5044022;28;21108;-70
2022/12/27 06:55:14;;;;;;;5.77;2.30;;;4.00;36.70;;;;;;5042285;28;20184;-70
2022/12/27 06:57:40;;;;;;;9.00;3.40;;;4.00;34.20;;;;;;5032073;28;20180;-68
2022/12/27 07:00:06;;;;;;;5.40;2.93;;;4.00;34.20;;;;;;5048792;28;20197;-69
2022/12/27 07:02:32;;;;;;;8.60;3.90;;;4.00;34.10;;;;;;5045722;28;20177;-69
2022/12/27 07:04:57;;;;;;;8.63;4.00;;;4.50;34.50;;;;;;5048469;28;20921;-71
2022/12/27 07:07:23;;;;;;;10.27;4.57;;;4.10;34.20;;;;;;5046550;28;20666;-69
2022/12/27 15:36:40;;;;;;;7.47;3.87;;;6.90;1.00;;;;;;5085707;28;20583;-71
2022/12/27 15:39:31;;;;;;;12.40;5.00;;;6.90;1.00;;;;;;5087659;28;20517;-70
2022/12/27 15:42:34;;;;;;;9.67;3.87;;;7.00;1.00;;;;;;5062798;28;20782;-71
2022/12/27 15:45:08;;;;;;;7.27;3.87;;;7.20;1.00;;;;;;5059759;28;20939;-71
2022/12/27 15:47:57;;;;;;;8.50;4.10;;;7.40;1.00;;;;;;5064945;28;20423;-71
2022/12/27 15:51:00;;;;;;;7.03;4.13;;;7.50;1.00;;;;;;5059565;28;21025;-70
2022/12/27 15:53:48;;;;;;;5.73;2.80;;;7.70;1.00;;;;;;5063374;28;20523;-71
2022/12/27 15:56:13;;;;;;;6.93;3.63;;;7.90;1.00;;;;;;5059825;28;20467;-70
2022/12/27 15:58:39;;;;;;;7.53;3.63;;;8.00;1.00;;;;;;5063536;28;20426;-70
2022/12/27 16:01:26;;;;;;;7.93;3.83;;;8.10;1.00;;;;;;5062747;28;20379;-71
2022/12/27 16:03:52;;;;;;;7.77;3.90;;;8.10;1.00;;;;;;5063295;28;20492;-70
2022/12/27 16:06:33;;;;;;;8.03;3.67;;;8.20;1.00;;;;;;5064365;28;20426;-71
2022/12/27 16:09:30;;;;;;;7.33;3.57;;;8.20;1.00;;;;;;5063708;28;20821;-71
2022/12/27 16:12:01;;;;;;;6.00;4.53;;;9.60;1.00;;;;;;5061957;28;20451;-71
2022/12/27 16:14:31;;;;;;;8.83;4.60;;;8.20;1.00;;;;;;5062933;28;20561;-71
2022/12/27 16:17:22;;;;;;;12.37;5.23;;;8.10;1.00;;;;;;5062861;28;20445;-71
2022/12/27 16:19:54;;;;;;;18.73;8.43;;;8.10;1.00;;;;;;5062548;28;20427;-71
2022/12/27 16:22:34;;;;;;;19.87;5.90;;;8.10;1.00;;;;;;5060407;28;20458;-69
2022/12/27 16:25:20;;;;;;;11.07;5.83;;;8.10;1.00;;;;;;5062020;28;20445;-70
2022/12/27 16:27:57;;;;;;;6.60;5.23;;;8.00;1.00;;;;;;5071491;28;20478;-70
2022/12/27 16:30:39;;;;;;;9.93;6.00;;;7.80;1.00;;;;;;5051036;28;20461;-70
2022/12/27 16:33:06;;;;;;;9.50;4.13;;;7.70;1.00;;;;;;5059701;28;20936;-70
2022/12/27 16:35:31;;;;;;;9.20;4.13;;;7.60;1.00;;;;;;5064654;28;20545;-70
2022/12/27 16:38:02;;;;;;;10.47;4.97;;;7.50;1.00;;;;;;5063762;28;20498;-71
2022/12/27 16:40:41;;;;;;;10.60;4.23;;;7.40;1.00;;;;;;5062270;28;20197;-70
2022/12/27 16:43:06;;;;;;;9.30;4.43;;;7.30;1.00;;;;;;5055801;28;20458;-71
2022/12/27 16:45:50;;;;;;;11.07;5.10;;;7.20;1.00;;;;;;5064476;28;20778;-71
2022/12/27 16:49:02;;;;;;;6.03;3.20;;;7.00;1.00;;;;;;5046915;28;20205;-70
2022/12/27 16:51:53;;;;;;;12.33;3.60;;;6.90;1.00;;;;;;4979509;28;20497;-69
2022/12/27 16:54:47;;;;;;;6.30;3.37;;;6.80;1.00;;;;;;5044943;28;20436;-70
2022/12/27 16:57:25;;;;;;;5.37;3.10;;;6.60;1.00;;;;;;5021898;28;20528;-70
2022/12/27 17:00:04;;;;;;;5.93;2.73;;;6.50;1.00;;;;;;5050725;28;20692;-71
2022/12/27 17:02:36;;;;;;;6.40;3.70;;;6.40;1.00;;;;;;5052553;28;20431;-70
2022/12/27 17:05:23;;;;;;;6.97;2.90;;;6.30;1.00;;;;;;5045010;28;20968;-71
2022/12/27 17:08:08;;;;;;;7.20;4.20;;;6.20;1.00;;;;;;5046611;28;20514;-70
2022/12/27 17:10:42;;;;;;;5.20;3.33;;;6.20;1.00;;;;;;5051451;28;20419;-71
2022/12/27 17:13:24;;;;;;;9.60;4.97;;;6.10;1.00;;;;;;5050740;28;20396;-70
2022/12/27 17:15:58;;;;;;;11.33;4.60;;;6.00;1.00;;;;;;5051639;28;21129;-70
2022/12/27 17:18:28;;;;;;;10.83;4.30;;;5.90;1.00;;;;;;5050136;28;20498;-71
2022/12/27 17:21:05;;;;;;;5.60;3.50;;;5.80;1.00;;;;;;5048982;28;20440;-70
2022/12/27 17:23:40;;;;;;;5.63;3.77;;;5.80;1.00;;;;;;5062476;28;20908;-71
2022/12/27 17:26:44;;;;;;;6.67;3.70;;;5.70;1.00;;;;;;5071279;28;20440;-69
2022/12/27 17:29:24;;;;;;;7.20;3.60;;;5.70;1.00;;;;;;5068198;28;20423;-70
2022/12/27 17:32:09;;;;;;;8.30;3.90;;;5.60;1.00;;;;;;5050694;28;20561;-69
2022/12/27 17:34:55;;;;;;;9.10;4.60;;;5.40;1.00;;;;;;5051037;28;20961;-70
2022/12/27 17:37:45;;;;;;;6.70;4.00;;;5.40;1.00;;;;;;5050949;28;20873;-70
2022/12/27 17:40:24;;;;;;;7.73;4.40;;;5.40;1.00;;;;;;5043952;28;20882;-71
2022/12/27 17:45:58;;;;;;;9.63;4.30;;;5.20;1.00;;;;;;5031236;28;20917;-71
2022/12/27 17:48:31;;;;;;;9.37;3.60;;;5.20;1.00;;;;;;5031242;28;20783;-71
2022/12/27 17:51:01;;;;;;;7.50;3.40;;;5.20;1.00;;;;;;5041385;28;20438;-70
2022/12/27 17:59:13;;;;;;;10.23;4.50;;;5.00;1.00;;;;;;5050091;28;20979;-70
2022/12/27 18:01:46;;;;;;;5.73;3.40;;;5.00;1.00;;;;;;5050030;28;20441;-70
2022/12/27 18:04:42;;;;;;;5.53;3.90;;;4.90;1.00;;;;;;5050744;28;20435;-70
2022/12/27 18:07:11;;;;;;;12.10;4.17;;;4.80;1.00;;;;;;5049980;28;20423;-70
2022/12/27 18:09:43;;;;;;;6.07;3.27;;;4.80;1.00;;;;;;5050360;28;20400;-71
2022/12/27 18:12:18;;;;;;;7.43;3.60;;;4.80;1.00;;;;;;5049082;28;20403;-70
2022/12/27 18:14:52;;;;;;;6.30;3.50;;;4.70;1.00;;;;;;5036306;28;20459;-70
2022/12/27 18:17:36;;;;;;;5.77;3.67;;;4.70;1.00;;;;;;5030870;28;20400;-70
2022/12/27 18:20:29;;;;;;;7.00;3.40;;;4.60;1.00;;;;;;5030610;28;20429;-71
2022/12/27 18:23:01;;;;;;;11.73;4.40;;;4.50;1.00;;;;;;5072154;28;20854;-70
2022/12/27 18:25:45;;;;;;;10.83;3.87;;;4.40;1.00;;;;;;5069983;28;20480;-70
2022/12/27 18:28:28;;;;;;;8.63;3.70;;;4.40;1.00;;;;;;5056912;28;20499;-71
2022/12/27 18:30:54;;;;;;;6.57;3.47;;;4.30;1.00;;;;;;5029986;28;20432;-68
2022/12/27 18:33:29;;;;;;;6.87;4.10;;;4.20;1.00;;;;;;5036500;28;20465;-70
2022/12/27 18:35:56;;;;;;;7.47;4.40;;;4.20;1.00;;;;;;5050257;28;20285;-70
2022/12/27 18:38:30;;;;;;;13.77;5.20;;;4.20;1.00;;;;;;5049284;28;20941;-70
2022/12/27 18:41:03;;;;;;;7.83;4.20;;;4.20;1.00;;;;;;5047374;28;20455;-70
2022/12/27 18:43:30;;;;;;;10.17;4.77;;;4.20;1.00;;;;;;5044953;28;20420;-70
2022/12/27 18:45:56;;;;;;;6.07;3.47;;;4.10;1.00;;;;;;5030192;28;20427;-71
2022/12/27 18:48:23;;;;;;;9.40;4.00;;;4.00;1.10;;;;;;5029914;28;20478;-70
2022/12/27 18:50:53;;;;;;;4.80;3.60;;;3.90;1.00;;;;;;5038284;28;20462;-70
2022/12/27 18:53:30;;;;;;;9.83;3.70;;;3.80;3.10;;;;;;5055438;28;20446;-70
2022/12/27 18:56:19;;;;;;;5.90;4.17;;;3.80;2.60;;;;;;5068098;28;20562;-71
2022/12/27 18:59:00;;;;;;;9.63;3.70;;;3.80;2.70;;;;;;5063583;28;20415;-70
2022/12/27 19:01:39;;;;;;;9.00;3.70;;;3.80;1.00;;;;;;5046776;28;20521;-70
2022/12/27 19:04:13;;;;;;;8.30;4.20;;;3.80;2.60;;;;;;5029795;28;20503;-70
2022/12/27 19:07:11;;;;;;;9.20;4.50;;;3.80;2.30;;;;;;5029951;28;20784;-69
2022/12/27 19:09:41;;;;;;;9.33;5.20;;;3.80;1.00;;;;;;5044625;28;20423;-71
2022/12/27 19:12:19;;;;;;;13.00;5.20;;;3.70;2.10;;;;;;5048364;28;20426;-70
2022/12/27 19:14:45;;;;;;;14.30;5.93;;;3.80;2.60;;;;;;5049650;28;20498;-71
2022/12/27 19:17:24;;;;;;;11.60;5.73;;;3.70;1.00;;;;;;5049473;28;20430;-70
2022/12/27 19:19:53;;;;;;;10.23;4.80;;;3.60;1.10;;;;;;5049420;28;20410;-71
2022/12/27 19:22:42;;;;;;;8.70;4.83;;;3.70;5.10;;;;;;5051384;28;20427;-70
2022/12/27 19:25:36;;;;;;;10.27;5.40;;;3.60;2.70;;;;;;5044439;28;20420;-70
2022/12/27 19:28:24;;;;;;;10.20;5.37;;;3.80;2.50;;;;;;5027722;28;20435;-70
2022/12/27 19:31:14;;;;;;;8.30;5.43;;;3.60;1.60;;;;;;5029525;28;21105;-70
2022/12/27 19:33:42;;;;;;;13.23;5.73;;;3.60;2.30;;;;;;5036900;28;20458;-70
2022/12/27 19:36:09;;;;;;;13.23;7.07;;;3.60;1.10;;;;;;5049171;28;20469;-70
2022/12/27 19:38:36;;;;;;;12.30;7.07;;;3.50;1.00;;;;;;5048376;28;20426;-71
2022/12/27 19:41:02;;;;;;;10.03;6.53;;;3.50;1.00;;;;;;5040110;28;20446;-68
2022/12/27 19:43:36;;;;;;;15.50;8.23;;;3.50;1.50;;;;;;5049105;28;20516;-70
2022/12/27 19:46:01;;;;;;;12.87;7.70;;;3.40;3.30;;;;;;5049541;28;20414;-70
2022/12/27 19:48:27;;;;;;;16.23;6.80;;;3.40;2.90;;;;;;5048828;28;20427;-71
2022/12/27 19:50:53;;;;;;;39.13;15.73;;;3.40;3.10;;;;;;5051008;28;20209;-68
2022/12/27 19:53:23;;;;;;;19.40;10.90;;;3.40;4.50;;;;;;5058473;28;20183;-70
2022/12/27 19:55:49;;;;;;;34.67;17.80;;;3.40;3.60;;;;;;5068877;28;20466;-70
2022/12/27 19:58:21;;;;;;;23.23;12.47;;;1.90;2.40;;;;;;5068892;28;20940;-70
2022/12/27 20:00:46;;;;;;;10.13;5.97;;;3.40;3.70;;;;;;5068926;28;20280;-70
2022/12/27 20:03:12;;;;;;;14.90;6.33;;;3.20;2.30;;;;;;5028123;28;20412;-70
2022/12/27 20:05:38;;;;;;;10.47;5.10;;;3.20;2.10;;;;;;5029385;28;20185;-71
2022/12/27 20:08:05;;;;;;;16.80;6.00;;;3.10;3.00;;;;;;5028485;28;20166;-70
2022/12/27 20:10:31;;;;;;;17.20;8.30;;;3.10;5.30;;;;;;5039930;28;20204;-71
2022/12/27 20:12:57;;;;;;;14.63;7.70;;;3.00;3.40;;;;;;5046638;28;20503;-70
2022/12/27 20:15:23;;;;;;;21.47;8.73;;;3.20;3.90;;;;;;5048949;28;20546;-71
2022/12/27 20:17:50;;;;;;;9.87;6.13;;;3.30;4.40;;;;;;5048812;28;20809;-70
2022/12/27 20:20:15;;;;;;;7.00;5.13;;;3.00;3.10;;;;;;5047059;28;20439;-70
2022/12/27 20:22:41;;;;;;;7.27;4.13;;;3.00;2.40;;;;;;5056364;28;20420;-71
2022/12/27 20:25:07;;;;;;;6.63;3.87;;;3.00;2.00;;;;;;5055777;28;20181;-69
2022/12/27 20:27:32;;;;;;;13.70;5.60;;;2.90;4.20;;;;;;5051981;28;20626;-70
2022/12/27 20:29:58;;;;;;;7.93;4.00;;;3.40;4.40;;;;;;5052809;28;20578;-70
2022/12/27 20:32:24;;;;;;;11.17;4.60;;;3.00;1.70;;;;;;5051867;28;20184;-70
2022/12/27 20:34:49;;;;;;;8.30;3.63;;;2.90;1.20;;;;;;5052423;28;20208;-69
2022/12/27 20:37:15;;;;;;;7.20;4.00;;;2.90;1.00;;;;;;5052072;28;20235;-70
2022/12/27 20:39:40;;;;;;;6.67;3.53;;;2.80;1.00;;;;;;5051582;28;20462;-69
2022/12/27 20:42:06;;;;;;;6.90;3.53;;;2.80;1.80;;;;;;5050814;28;20191;-70
2022/12/27 20:44:32;;;;;;;10.00;3.47;;;2.80;1.00;;;;;;5051108;28;20264;-70
2022/12/27 20:46:57;;;;;;;9.73;5.10;;;2.80;1.00;;;;;;5052313;28;20162;-70
2022/12/27 20:49:23;;;;;;;8.30;3.67;;;2.80;1.10;;;;;;5052163;28;20575;-71
2022/12/27 20:51:48;;;;;;;7.97;3.67;;;3.00;1.00;;;;;;5055146;28;20224;-69
2022/12/27 20:54:14;;;;;;;5.90;4.03;;;2.70;1.00;;;;;;5057715;28;20631;-70
2022/12/27 20:56:40;;;;;;;9.90;6.57;;;2.60;3.60;;;;;;5051371;28;20196;-70
2022/12/27 20:59:05;;;;;;;7.20;3.40;;;2.90;1.90;;;;;;5051675;28;20173;-70
2022/12/27 21:01:31;;;;;;;11.80;3.83;;;2.50;8.10;;;;;;5051144;28;20189;-70
2022/12/27 21:03:57;;;;;;;6.10;3.10;;;2.70;8.70;;;;;;5051877;28;20166;-70
2022/12/27 21:06:25;;;;;;;8.57;3.90;;;2.80;3.80;;;;;;5051878;28;20174;-70
2022/12/27 21:08:50;;;;;;;8.67;3.67;;;3.10;2.40;;;;;;5049843;28;20266;-70
2022/12/27 21:11:19;;;;;;;18.77;6.53;;;2.70;1.00;;;;;;5049474;28;20438;-70
2022/12/27 21:13:45;;;;;;;11.00;5.63;;;2.70;1.00;;;;;;5051341;28;20216;-70
2022/12/27 21:16:13;;;;;;;11.03;4.77;;;2.70;1.00;;;;;;5066894;28;21021;-70
2022/12/27 21:18:39;;;;;;;8.67;4.60;;;2.60;3.90;;;;;;5051817;28;20431;-69
2022/12/27 21:21:08;;;;;;;9.80;5.27;;;2.60;5.70;;;;;;5055088;28;20426;-70
2022/12/27 21:23:35;;;;;;;7.43;4.70;;;3.00;3.00;;;;;;5062513;28;20413;-70
2022/12/27 21:26:07;;;;;;;10.27;5.43;;;2.60;4.30;;;;;;5071480;28;20435;-70
2022/12/27 21:28:33;;;;;;;5.60;3.83;;;2.60;3.30;;;;;;5062685;28;20431;-70
2022/12/27 21:30:59;;;;;;;7.13;4.50;;;2.60;3.60;;;;;;5050920;28;20435;-68
2022/12/27 21:33:26;;;;;;;8.47;4.20;;;2.60;4.10;;;;;;5051095;28;20473;-69
2022/12/27 21:36:10;;;;;;;8.70;4.50;;;2.70;4.60;;;;;;5066741;28;20216;-71
2022/12/27 21:38:36;;;;;;;9.13;4.47;;;2.60;2.70;;;;;;5057542;28;20982;-69
2022/12/27 21:41:04;;;;;;;13.57;5.77;;;2.50;3.40;;;;;;5049879;28;20446;-68
2022/12/27 21:43:30;;;;;;;9.83;5.50;;;2.40;5.80;;;;;;5049034;28;20177;-70
2022/12/27 21:45:57;;;;;;;14.00;7.30;;;2.80;5.30;;;;;;5045965;28;21218;-70
2022/12/27 21:48:23;;;;;;;9.13;4.67;;;2.50;4.40;;;;;;5049845;28;20443;-71
2022/12/27 21:50:49;;;;;;;6.10;3.87;;;2.40;2.50;;;;;;5047145;28;20476;-70
2022/12/27 21:53:16;;;;;;;8.50;4.20;;;2.40;2.90;;;;;;5048535;28;20652;-71
2022/12/27 21:55:42;;;;;;;9.13;4.40;;;2.50;4.80;;;;;;5046766;28;20806;-70
2022/12/27 21:58:08;;;;;;;7.97;4.10;;;2.40;3.40;;;;;;5057542;28;20431;-70
2022/12/27 22:00:35;;;;;;;8.50;4.90;;;2.40;5.20;;;;;;5049750;28;20476;-69
2022/12/27 22:03:00;;;;;;;9.83;6.03;;;2.50;10.40;;;;;;5045356;28;20806;-69
2022/12/27 22:05:27;;;;;;;8.50;5.27;;;2.60;14.10;;;;;;5050074;28;20480;-70
2022/12/27 22:07:56;;;;;;;9.17;5.03;;;2.80;10.60;;;;;;5048052;28;20193;-70
2022/12/27 22:10:23;;;;;;;9.37;6.00;;;2.80;6.50;;;;;;5047049;28;20491;-69
2022/12/27 22:12:49;;;;;;;8.57;4.90;;;2.80;7.50;;;;;;5063815;28;20489;-69
2022/12/27 22:15:15;;;;;;;8.73;4.87;;;2.80;9.10;;;;;;5047130;28;21190;-69
2022/12/27 22:17:40;;;;;;;11.27;4.40;;;2.90;8.60;;;;;;5049678;28;20404;-69
2022/12/27 22:20:06;;;;;;;9.90;4.77;;;2.90;5.10;;;;;;5046862;28;20201;-68
2022/12/27 22:22:31;;;;;;;7.00;4.33;;;2.90;2.20;;;;;;5063980;28;20179;-68
2022/12/27 22:24:57;;;;;;;4.70;3.80;;;2.90;6.00;;;;;;5046688;28;20173;-69
2022/12/27 22:27:23;;;;;;;6.37;4.30;;;3.20;2.80;;;;;;5048960;28;20252;-69
2022/12/27 22:29:48;;;;;;;7.50;4.40;;;2.90;1.10;;;;;;5048456;28;20177;-68
2022/12/27 22:32:14;;;;;;;10.00;4.50;;;3.40;3.50;;;;;;5046362;28;20651;-68
2022/12/27 22:34:39;;;;;;;10.13;4.83;;;2.90;2.40;;;;;;5046628;28;20193;-70
2022/12/27 22:37:05;;;;;;;8.50;5.10;;;2.80;2.40;;;;;;5048442;28;20617;-69
2022/12/27 22:39:31;;;;;;;11.83;4.60;;;3.00;1.60;;;;;;5047998;28;20215;-70
2022/12/27 22:41:56;;;;;;;7.47;4.57;;;3.30;2.00;;;;;;5041841;28;20201;-68
2022/12/27 22:44:22;;;;;;;6.40;4.70;;;2.80;1.00;;;;;;5048662;28;21034;-70
2022/12/27 22:46:48;;;;;;;9.90;5.00;;;2.70;1.00;;;;;;5048075;28;20203;-69
2022/12/27 22:49:14;;;;;;;9.10;5.27;;;2.70;1.70;;;;;;5049185;28;20165;-69
2022/12/27 22:51:40;;;;;;;8.43;4.70;;;2.70;1.00;;;;;;5046275;28;20200;-68
2022/12/27 22:54:06;;;;;;;8.73;4.80;;;2.70;1.80;;;;;;5048089;28;20166;-69
2022/12/27 22:56:40;;;;;;;8.57;4.83;;;2.70;1.80;;;;;;5045878;28;20370;-70
2022/12/27 22:59:11;;;;;;;15.63;4.73;;;2.70;1.90;;;;;;5047642;28;20790;-69
2022/12/27 23:01:37;;;;;;;8.50;4.60;;;2.70;2.20;;;;;;5045141;28;20451;-69
2022/12/27 23:04:04;;;;;;;9.80;4.50;;;2.70;2.60;;;;;;5042001;28;20449;-71
2022/12/27 23:06:32;;;;;;;7.33;4.03;;;2.70;3.60;;;;;;5047344;28;20517;-69
2022/12/27 23:08:57;;;;;;;5.83;4.03;;;2.70;5.60;;;;;;5053317;28;20768;-70
2022/12/27 23:11:29;;;;;;;6.87;4.13;;;2.70;1.40;;;;;;5046673;28;20481;-69
2022/12/27 23:14:01;;;;;;;7.00;4.27;;;3.10;5.10;;;;;;5046558;28;20360;-70
2022/12/27 23:16:27;;;;;;;8.67;4.30;;;2.80;1.90;;;;;;5047373;28;20471;-69
2022/12/27 23:18:53;;;;;;;5.87;4.20;;;2.70;1.90;;;;;;5046853;28;20436;-68
2022/12/27 23:21:22;;;;;;;4.90;3.80;;;2.80;1.00;;;;;;5047064;28;20498;-70
2022/12/27 23:23:48;;;;;;;5.63;4.37;;;2.80;1.00;;;;;;5061786;28;20181;-70
2022/12/27 23:26:16;;;;;;;9.97;4.57;;;2.70;1.00;;;;;;5050114;28;20411;-68
2022/12/27 23:28:43;;;;;;;16.00;4.77;;;2.70;2.20;;;;;;5061369;28;20508;-69
2022/12/27 23:31:10;;;;;;;8.47;4.93;;;2.90;3.40;;;;;;5046657;28;20471;-68
2022/12/27 23:33:37;;;;;;;7.80;5.23;;;2.60;4.20;;;;;;5045050;28;20470;-68
2022/12/27 23:36:03;;;;;;;9.13;5.90;;;2.90;5.80;;;;;;5046990;28;20458;-70
2022/12/27 23:38:29;;;;;;;10.07;5.20;;;2.70;7.20;;;;;;5039166;28;20813;-70
2022/12/27 23:40:56;;;;;;;8.27;5.13;;;2.80;5.80;;;;;;5045662;28;20207;-68
2022/12/27 23:43:23;;;;;;;9.00;5.90;;;2.80;5.50;;;;;;5047441;28;20843;-69